Time;durP1;ratioP1;P1;durP2;ratioP2;P2;SDS_P1;SDS_P2;PMS_P1;PMS_P2;Temp;Humidity;BMP_temperature;BMP_pressure;BME280_temperature;BME280_humidity;BME280_pressure;Samples;Min_cycle;Max_cycle;Signal;HPM_P1;HPM_P2
2021/08/05 00:01:44;;;;;;;0.60;0.30;;;;;;;;;;5035558;28;20021;-60
2021/08/05 00:04:09;;;;;;;1.58;0.45;;;;;;;;;;5035480;28;20025;-59
2021/08/05 00:06:35;;;;;;;1.08;0.30;;;;;;;;;;5025937;28;20417;-60
2021/08/05 00:09:00;;;;;;;1.63;0.40;;;;;;;;;;5028640;28;20022;-60
2021/08/05 00:11:25;;;;;;;1.20;0.70;;;;;;;;;;5035033;28;20025;-60
2021/08/05 00:13:51;;;;;;;0.47;0.30;;;;;;;;;;5035404;28;20057;-60
2021/08/05 00:16:16;;;;;;;1.17;0.25;;;;;;;;;;5028668;28;20021;-59
2021/08/05 00:18:41;;;;;;;0.98;0.20;;;;;;;;;;5015492;28;20030;-59
2021/08/05 00:21:06;;;;;;;1.02;0.70;;;;;;;;;;5015304;28;20030;-59
2021/08/05 00:23:32;;;;;;;0.60;0.40;;;;;;;;;;5015337;28;20104;-59
2021/08/05 00:25:57;;;;;;;1.60;0.30;;;;;;;;;;5018065;28;20029;-59
2021/08/05 00:28:22;;;;;;;0.60;0.20;;;;;;;;;;5035007;28;20021;-60
2021/08/05 00:30:47;;;;;;;1.05;0.28;;;;;;;;;;5035149;28;20376;-60
2021/08/05 00:33:13;;;;;;;0.55;0.20;;;;;;;;;;5034862;28;20064;-60
2021/08/05 00:35:38;;;;;;;1.20;0.30;;;;;;;;;;5034275;28;20033;-60
2021/08/05 00:38:03;;;;;;;2.00;0.40;;;;;;;;;;5034697;28;20032;-61
2021/08/05 00:40:28;;;;;;;1.00;0.20;;;;;;;;;;5034799;28;20048;-61
2021/08/05 00:42:54;;;;;;;1.08;0.30;;;;;;;;;;5034128;28;20729;-61
2021/08/05 00:45:19;;;;;;;1.40;0.40;;;;;;;;;;5034683;28;20036;-60
2021/08/05 00:47:45;;;;;;;0.85;0.40;;;;;;;;;;5016945;28;20477;-59
2021/08/05 00:50:11;;;;;;;0.40;0.40;;;;;;;;;;5026873;28;20049;-60
2021/08/05 00:52:36;;;;;;;1.08;0.30;;;;;;;;;;5032635;28;20025;-59
2021/08/05 00:55:02;;;;;;;0.40;0.20;;;;;;;;;;5034433;28;20013;-60
2021/08/05 00:57:27;;;;;;;0.40;0.40;;;;;;;;;;5034439;28;20009;-59
2021/08/05 00:59:52;;;;;;;0.40;0.20;;;;;;;;;;5016751;28;20144;-60
2021/08/05 01:02:19;;;;;;;1.42;0.40;;;;;;;;;;5023162;28;20542;-59
2021/08/05 01:04:46;;;;;;;0.50;0.20;;;;;;;;;;5034437;28;20028;-60
2021/08/05 01:07:37;;;;;;;0.22;0.13;;;;;;;;;;5034053;28;20022;-59
2021/08/05 01:10:05;;;;;;;0.52;0.30;;;;;;;;;;5019370;28;20022;-61
2021/08/05 01:12:45;;;;;;;2.28;0.30;;;;;;;;;;5014405;28;20105;-60
2021/08/05 01:15:13;;;;;;;0.90;0.38;;;;;;;;;;5014575;28;20102;-60
2021/08/05 01:17:40;;;;;;;0.60;0.35;;;;;;;;;;5015632;28;20034;-60
2021/08/05 01:20:06;;;;;;;0.10;0.10;;;;;;;;;;5014114;28;20412;-60
2021/08/05 01:22:41;;;;;;;1.88;0.38;;;;;;;;;;5014294;28;20058;-61
2021/08/05 01:25:25;;;;;;;1.00;0.28;;;;;;;;;;5014203;28;20025;-62
2021/08/05 01:27:50;;;;;;;0.10;0.10;;;;;;;;;;5014059;28;20022;-61
2021/08/05 01:30:16;;;;;;;0.32;0.22;;;;;;;;;;5013935;28;20105;-62
2021/08/05 01:32:41;;;;;;;0.73;0.20;;;;;;;;;;5014145;28;20101;-61
2021/08/05 01:35:08;;;;;;;0.43;0.22;;;;;;;;;;5014032;28;20476;-62
2021/08/05 01:37:34;;;;;;;1.27;0.30;;;;;;;;;;5015724;28;20026;-61
2021/08/05 01:40:01;;;;;;;1.85;0.40;;;;;;;;;;5033592;28;20024;-63
2021/08/05 01:42:26;;;;;;;1.38;0.30;;;;;;;;;;5033546;28;20030;-62
2021/08/05 01:44:53;;;;;;;0.30;0.30;;;;;;;;;;5033590;28;20018;-63
2021/08/05 01:47:20;;;;;;;0.80;0.45;;;;;;;;;;5033423;28;20040;-62
2021/08/05 01:49:46;;;;;;;0.50;0.30;;;;;;;;;;5031545;28;20024;-62
2021/08/05 01:52:12;;;;;;;0.35;0.30;;;;;;;;;;5033358;28;20017;-63
2021/08/05 01:54:37;;;;;;;0.30;0.20;;;;;;;;;;5031888;28;20013;-63
2021/08/05 01:57:03;;;;;;;0.75;0.20;;;;;;;;;;5033473;28;20140;-63
2021/08/05 01:59:28;;;;;;;1.75;0.40;;;;;;;;;;5033215;28;20571;-66
2021/08/05 02:01:53;;;;;;;1.40;0.50;;;;;;;;;;5033359;28;20502;-66
2021/08/05 02:04:24;;;;;;;0.68;0.30;;;;;;;;;;5031232;28;20263;-65
2021/08/05 02:06:57;;;;;;;0.35;0.20;;;;;;;;;;5031302;28;20025;-65
2021/08/05 02:09:32;;;;;;;0.60;0.40;;;;;;;;;;5030581;28;20021;-64
2021/08/05 02:11:57;;;;;;;1.27;0.22;;;;;;;;;;5031834;28;20135;-64
2021/08/05 02:14:24;;;;;;;1.40;0.30;;;;;;;;;;5031611;28;20483;-65
2021/08/05 02:16:49;;;;;;;0.30;0.30;;;;;;;;;;5031965;28;20022;-66
2021/08/05 02:19:15;;;;;;;0.38;0.10;;;;;;;;;;5033164;28;20072;-66
2021/08/05 02:21:41;;;;;;;1.33;0.50;;;;;;;;;;5033242;28;20028;-63
2021/08/05 02:24:06;;;;;;;0.20;0.20;;;;;;;;;;5030074;28;20113;-62
2021/08/05 02:26:32;;;;;;;1.75;0.38;;;;;;;;;;5013187;28;20100;-62
2021/08/05 02:28:58;;;;;;;1.60;0.22;;;;;;;;;;5013370;28;20352;-62
2021/08/05 02:31:23;;;;;;;0.55;0.20;;;;;;;;;;5013163;28;20021;-62
2021/08/05 02:33:50;;;;;;;1.20;0.40;;;;;;;;;;5013727;28;20014;-61
2021/08/05 02:36:15;;;;;;;3.67;0.25;;;;;;;;;;5013154;28;20087;-62
2021/08/05 02:38:40;;;;;;;1.85;0.50;;;;;;;;;;5013218;28;20509;-62
2021/08/05 02:41:06;;;;;;;0.80;0.30;;;;;;;;;;5013130;28;20097;-62
2021/08/05 02:43:32;;;;;;;1.52;0.45;;;;;;;;;;5011936;28;20064;-62
2021/08/05 02:45:57;;;;;;;0.93;0.40;;;;;;;;;;5013148;28;20057;-62
2021/08/05 02:48:23;;;;;;;0.60;0.25;;;;;;;;;;5013130;28;20101;-63
2021/08/05 02:50:49;;;;;;;2.42;0.47;;;;;;;;;;5013195;28;20068;-62
2021/08/05 02:53:14;;;;;;;1.00;0.35;;;;;;;;;;5013155;28;20026;-63
2021/08/05 02:55:41;;;;;;;0.28;0.20;;;;;;;;;;5028518;28;20040;-63
2021/08/05 02:58:07;;;;;;;1.33;0.30;;;;;;;;;;5032858;28;20095;-63
2021/08/05 03:00:32;;;;;;;0.90;0.40;;;;;;;;;;5032672;28;20488;-63
2021/08/05 03:02:57;;;;;;;2.40;0.40;;;;;;;;;;5032707;28;20100;-64
2021/08/05 03:05:23;;;;;;;1.60;0.45;;;;;;;;;;5019414;28;20286;-62
2021/08/05 03:07:48;;;;;;;0.70;0.28;;;;;;;;;;5016618;28;20033;-64
2021/08/05 03:10:14;;;;;;;0.30;0.17;;;;;;;;;;5016636;28;20046;-62
2021/08/05 03:12:39;;;;;;;1.35;0.30;;;;;;;;;;5016679;28;20255;-63
2021/08/05 03:15:05;;;;;;;0.95;0.30;;;;;;;;;;5025353;28;20021;-63
2021/08/05 03:17:30;;;;;;;0.57;0.20;;;;;;;;;;5025549;28;20021;-63
2021/08/05 03:19:56;;;;;;;1.55;0.50;;;;;;;;;;5034613;28;20018;-63
2021/08/05 03:22:21;;;;;;;1.33;0.43;;;;;;;;;;5036070;28;20435;-63
2021/08/05 03:24:46;;;;;;;1.00;0.43;;;;;;;;;;5035095;28;20032;-62
2021/08/05 03:27:11;;;;;;;1.10;0.20;;;;;;;;;;5036200;28;20021;-62
2021/08/05 03:29:37;;;;;;;0.85;0.10;;;;;;;;;;5036112;28;20018;-62
2021/08/05 03:32:02;;;;;;;0.65;0.30;;;;;;;;;;5036166;28;20025;-62
2021/08/05 03:34:27;;;;;;;1.35;0.30;;;;;;;;;;5029671;28;20029;-63
2021/08/05 03:36:53;;;;;;;1.00;0.20;;;;;;;;;;5026040;28;20024;-63
2021/08/05 03:39:18;;;;;;;0.75;0.30;;;;;;;;;;5035743;28;20018;-63
2021/08/05 03:41:43;;;;;;;0.57;0.20;;;;;;;;;;5035738;28;20017;-63
2021/08/05 03:44:09;;;;;;;0.57;0.10;;;;;;;;;;5032524;28;20061;-63
2021/08/05 03:46:34;;;;;;;0.43;0.25;;;;;;;;;;5015998;28;20044;-63
2021/08/05 03:48:59;;;;;;;1.55;0.25;;;;;;;;;;5015987;28;20037;-63
2021/08/05 03:51:24;;;;;;;0.52;0.20;;;;;;;;;;5015902;28;20044;-62
2021/08/05 03:53:49;;;;;;;0.70;0.27;;;;;;;;;;5016371;28;20063;-62
2021/08/05 03:56:15;;;;;;;0.70;0.22;;;;;;;;;;5035411;28;20263;-62
2021/08/05 03:58:40;;;;;;;0.80;0.10;;;;;;;;;;5035779;28;20079;-62
2021/08/05 04:01:05;;;;;;;0.43;0.20;;;;;;;;;;5035630;28;20077;-75
2021/08/05 04:03:32;;;;;;;0.60;0.30;;;;;;;;;;5036432;28;20029;-75
2021/08/05 04:06:00;;;;;;;1.55;0.55;;;;;;;;;;5036369;28;20251;-75
2021/08/05 04:08:32;;;;;;;1.88;0.55;;;;;;;;;;5035182;28;20025;-71
2021/08/05 04:10:58;;;;;;;0.38;0.10;;;;;;;;;;5035099;28;20472;-70
2021/08/05 04:13:24;;;;;;;0.55;0.10;;;;;;;;;;5033428;28;20028;-70
2021/08/05 04:15:50;;;;;;;0.32;0.30;;;;;;;;;;5036235;28;20076;-69
2021/08/05 04:18:16;;;;;;;0.47;0.20;;;;;;;;;;5035387;28;20472;-70
2021/08/05 04:20:43;;;;;;;0.30;0.20;;;;;;;;;;5036225;28;20476;-70
2021/08/05 04:23:09;;;;;;;1.15;0.25;;;;;;;;;;5036086;28;20397;-70
2021/08/05 04:25:56;;;;;;;0.95;0.22;;;;;;;;;;5051515;28;20021;-72
2021/08/05 04:28:23;;;;;;;0.90;0.22;;;;;;;;;;5035918;28;20524;-68
2021/08/05 04:31:24;;;;;;;0.45;0.20;;;;;;;;;;5035856;28;20010;-69
2021/08/05 04:33:50;;;;;;;0.68;0.30;;;;;;;;;;4994317;28;20025;-71
2021/08/05 04:36:27;;;;;;;0.35;0.20;;;;;;;;;;4994331;28;20431;-70
2021/08/05 04:38:53;;;;;;;0.93;0.45;;;;;;;;;;4994168;28;20019;-73
2021/08/05 04:41:20;;;;;;;1.40;0.35;;;;;;;;;;4994383;28;20033;-73
2021/08/05 04:43:47;;;;;;;0.65;0.40;;;;;;;;;;4977950;28;20014;-72
2021/08/05 04:46:20;;;;;;;0.63;0.20;;;;;;;;;;4994199;28;20500;-69
2021/08/05 04:48:48;;;;;;;1.23;0.27;;;;;;;;;;4994482;28;20030;-70
2021/08/05 04:51:13;;;;;;;2.47;0.35;;;;;;;;;;4994237;28;20026;-70
2021/08/05 04:53:40;;;;;;;0.52;0.20;;;;;;;;;;4994133;28;20876;-69
2021/08/05 04:56:06;;;;;;;0.75;0.28;;;;;;;;;;4977743;28;20523;-69
2021/08/05 04:58:33;;;;;;;1.27;0.30;;;;;;;;;;4994137;28;20456;-70
2021/08/05 05:00:59;;;;;;;1.10;0.43;;;;;;;;;;4993829;28;20453;-70
2021/08/05 05:03:33;;;;;;;1.02;0.43;;;;;;;;;;4993923;28;20098;-70
2021/08/05 05:05:59;;;;;;;2.42;0.40;;;;;;;;;;4993815;28;20026;-74
2021/08/05 05:08:24;;;;;;;1.92;0.38;;;;;;;;;;5025169;28;20116;-73
2021/08/05 05:10:51;;;;;;;0.50;0.10;;;;;;;;;;5035076;28;20108;-72
2021/08/05 05:13:17;;;;;;;0.98;0.40;;;;;;;;;;5035144;28;20048;-69
2021/08/05 05:15:44;;;;;;;2.80;0.32;;;;;;;;;;5035041;28;20009;-68
2021/08/05 05:18:11;;;;;;;1.60;0.17;;;;;;;;;;5034857;28;20025;-68
2021/08/05 05:20:37;;;;;;;0.85;0.20;;;;;;;;;;5033863;28;20071;-68
2021/08/05 05:23:05;;;;;;;0.80;0.38;;;;;;;;;;5034887;28;20022;-70
2021/08/05 05:25:32;;;;;;;0.77;0.30;;;;;;;;;;5033102;28;20017;-70
2021/08/05 05:28:07;;;;;;;0.15;0.10;;;;;;;;;;5034795;28;20026;-69
2021/08/05 05:30:34;;;;;;;0.80;0.20;;;;;;;;;;5033782;28;20068;-71
2021/08/05 05:33:01;;;;;;;1.17;0.30;;;;;;;;;;5034803;28;20036;-72
2021/08/05 05:35:27;;;;;;;0.82;0.22;;;;;;;;;;5034601;28;20464;-72
2021/08/05 05:37:54;;;;;;;1.83;0.30;;;;;;;;;;5033280;28;20026;-72
2021/08/05 05:40:23;;;;;;;1.10;0.35;;;;;;;;;;5034612;28;20017;-72
2021/08/05 05:43:07;;;;;;;1.67;0.20;;;;;;;;;;5034398;28;20029;-71
2021/08/05 05:45:33;;;;;;;0.73;0.25;;;;;;;;;;5034459;28;20388;-69
2021/08/05 05:48:00;;;;;;;0.30;0.10;;;;;;;;;;5033158;28;20029;-69
2021/08/05 05:50:26;;;;;;;0.40;0.13;;;;;;;;;;5033259;28;20022;-69
2021/08/05 05:52:53;;;;;;;0.10;0.10;;;;;;;;;;5034624;28;20014;-69
2021/08/05 05:55:19;;;;;;;1.13;0.30;;;;;;;;;;5034418;28;20442;-69
2021/08/05 05:58:12;;;;;;;0.88;0.30;;;;;;;;;;5033179;28;20491;-70
2021/08/05 06:00:37;;;;;;;0.35;0.20;;;;;;;;;;4973289;28;20066;-68
2021/08/05 06:03:05;;;;;;;0.55;0.35;;;;;;;;;;4973555;28;20112;-68
2021/08/05 06:05:31;;;;;;;0.60;0.20;;;;;;;;;;4973433;28;20094;-69
2021/08/05 06:07:58;;;;;;;0.60;0.30;;;;;;;;;;4973443;28;20477;-69
2021/08/05 06:10:24;;;;;;;1.30;0.20;;;;;;;;;;4973434;28;20501;-70
2021/08/05 06:12:51;;;;;;;2.05;0.40;;;;;;;;;;4972176;28;20019;-70
2021/08/05 06:15:19;;;;;;;1.73;0.20;;;;;;;;;;4956924;28;20019;-69
2021/08/05 06:17:45;;;;;;;0.20;0.20;;;;;;;;;;4970597;28;20039;-69
2021/08/05 06:20:12;;;;;;;0.38;0.17;;;;;;;;;;4971861;28;20034;-70
2021/08/05 06:22:47;;;;;;;3.03;0.40;;;;;;;;;;4973041;28;20029;-72
2021/08/05 06:25:14;;;;;;;1.38;0.30;;;;;;;;;;4972902;28;20035;-73
2021/08/05 06:27:48;;;;;;;1.17;0.30;;;;;;;;;;4956893;28;20401;-73
2021/08/05 06:30:27;;;;;;;2.00;0.52;;;;;;;;;;4973381;28;20031;-75
2021/08/05 06:32:53;;;;;;;1.40;0.40;;;;;;;;;;4973410;28;20038;-70
2021/08/05 06:35:30;;;;;;;0.88;0.30;;;;;;;;;;4973265;28;20027;-71
2021/08/05 06:37:55;;;;;;;2.10;0.60;;;;;;;;;;5016906;28;20037;-71
2021/08/05 06:40:22;;;;;;;1.77;0.50;;;;;;;;;;5033821;28;20053;-70
2021/08/05 06:42:54;;;;;;;1.38;0.30;;;;;;;;;;5037800;28;20052;-71
2021/08/05 06:45:19;;;;;;;1.98;0.47;;;;;;;;;;5037642;28;20021;-69
2021/08/05 06:47:46;;;;;;;0.93;0.30;;;;;;;;;;5035681;28;20029;-70
2021/08/05 06:50:14;;;;;;;1.10;0.50;;;;;;;;;;5037572;28;20460;-72
2021/08/05 06:52:51;;;;;;;1.17;0.60;;;;;;;;;;5020694;28;20022;-71
2021/08/05 06:55:42;;;;;;;1.30;0.50;;;;;;;;;;5018749;28;20465;-73
2021/08/05 06:58:08;;;;;;;0.73;0.30;;;;;;;;;;5033540;28;20566;-70
2021/08/05 07:00:33;;;;;;;1.30;0.30;;;;;;;;;;5034021;28;20471;-70
2021/08/05 07:02:59;;;;;;;1.13;0.50;;;;;;;;;;5023398;28;20069;-72
2021/08/05 07:05:25;;;;;;;1.33;0.20;;;;;;;;;;5030369;28;20273;-71
2021/08/05 07:07:54;;;;;;;0.30;0.30;;;;;;;;;;5035049;28;20270;-69
2021/08/05 07:10:21;;;;;;;1.65;0.52;;;;;;;;;;5021081;28;20018;-70
2021/08/05 07:12:57;;;;;;;1.17;0.45;;;;;;;;;;5015851;28;20470;-68
2021/08/05 07:15:23;;;;;;;1.10;0.30;;;;;;;;;;5027700;28;20037;-66
2021/08/05 07:17:48;;;;;;;0.88;0.30;;;;;;;;;;5054976;28;20085;-69
2021/08/05 07:20:16;;;;;;;1.75;0.32;;;;;;;;;;5054989;28;20029;-69
2021/08/05 07:22:43;;;;;;;1.38;0.55;;;;;;;;;;5039796;28;20038;-71
2021/08/05 07:25:09;;;;;;;1.13;0.50;;;;;;;;;;5015559;28;20040;-72
2021/08/05 07:27:37;;;;;;;1.08;0.35;;;;;;;;;;5023347;28;20563;-73
2021/08/05 07:30:06;;;;;;;2.15;0.50;;;;;;;;;;5025554;28;20068;-72
2021/08/05 07:32:32;;;;;;;1.13;0.57;;;;;;;;;;5018022;28;20116;-71
2021/08/05 07:34:57;;;;;;;1.08;0.30;;;;;;;;;;5030985;28;20029;-69
2021/08/05 07:37:22;;;;;;;1.08;0.38;;;;;;;;;;5036167;28;20060;-70
2021/08/05 07:39:48;;;;;;;2.25;0.40;;;;;;;;;;5036354;28;20025;-70
2021/08/05 07:42:15;;;;;;;1.52;0.40;;;;;;;;;;5036728;28;20439;-70
2021/08/05 07:44:41;;;;;;;1.25;0.40;;;;;;;;;;5050306;28;20105;-64
2021/08/05 07:47:06;;;;;;;0.82;0.30;;;;;;;;;;5034566;28;20442;-65
2021/08/05 07:49:31;;;;;;;1.97;0.30;;;;;;;;;;5035588;28;20435;-65
2021/08/05 07:51:56;;;;;;;0.55;0.20;;;;;;;;;;5031408;28;20255;-65
2021/08/05 07:54:22;;;;;;;1.13;0.20;;;;;;;;;;5025379;28;20054;-64
2021/08/05 07:56:47;;;;;;;0.95;0.30;;;;;;;;;;5024652;28;20077;-64
2021/08/05 07:59:12;;;;;;;0.45;0.35;;;;;;;;;;5030544;28;20031;-65
2021/08/05 08:02:28;;;;;;;0.75;0.40;;;;;;;21.58;55.76;101667.13;5069111;28;20395;-66
2021/08/05 08:04:54;;;;;;;0.55;0.20;;;;;;;21.61;54.70;101664.88;5034811;28;20036;-66
2021/08/05 08:07:19;;;;;;;1.83;0.32;;;;;;;21.62;54.31;101665.75;5047722;28;21274;-66
2021/08/05 08:09:45;;;;;;;0.50;0.28;;;;;;;21.59;55.14;101658.75;5049724;28;20083;-66
2021/08/05 08:12:11;;;;;;;1.70;0.20;;;;;;;21.66;54.50;101661.63;5055163;28;20019;-65
2021/08/05 08:14:36;;;;;;;0.63;0.17;;;;;;;21.62;54.97;101660.28;5052292;28;20029;-66
2021/08/05 08:17:02;;;;;;;0.73;0.20;;;;;;;21.63;54.98;101656.50;5050314;28;20463;-65
2021/08/05 08:19:28;;;;;;;1.60;0.30;;;;;;;21.65;54.60;101648.97;5045753;28;20041;-65
2021/08/05 08:21:53;;;;;;;1.88;0.20;;;;;;;21.69;54.17;101653.09;5030479;28;20024;-66
2021/08/05 08:24:20;;;;;;;0.75;0.10;;;;;;;21.65;55.96;101643.50;5054833;28;20029;-66
2021/08/05 08:26:45;;;;;;;2.65;0.40;;;;;;;21.52;56.21;101649.53;5042254;28;20024;-66
2021/08/05 08:29:11;;;;;;;0.60;0.40;;;;;;;21.54;55.95;101643.88;5030015;28;20108;-65
2021/08/05 08:31:36;;;;;;;0.30;0.10;;;;;;;21.62;54.62;101643.84;5033662;28;20113;-66
2021/08/05 08:34:01;;;;;;;1.35;0.10;;;;;;;21.54;55.28;101643.88;5039749;28;20115;-66
2021/08/05 08:36:27;;;;;;;0.60;0.20;;;;;;;21.55;56.03;101642.84;5044255;28;20064;-65
2021/08/05 08:38:52;;;;;;;1.38;0.30;;;;;;;21.61;54.16;101639.41;5043924;28;20021;-66
2021/08/05 08:41:21;;;;;;;0.95;0.57;;;;;;;21.63;55.25;101640.09;5052011;28;20033;-66
2021/08/05 08:43:47;;;;;;;2.08;0.30;;;;;;;21.56;53.99;101650.03;5059243;28;20107;-66
2021/08/05 08:46:19;;;;;;;1.20;0.45;;;;;;;21.62;54.85;101638.38;5069569;28;20032;-65
2021/08/05 08:48:45;;;;;;;1.45;0.22;;;;;;;21.61;55.03;101636.66;5056084;28;20021;-67
2021/08/05 08:51:11;;;;;;;1.67;0.43;;;;;;;21.51;54.75;101641.50;5039822;28;20021;-66
2021/08/05 08:53:39;;;;;;;1.67;0.30;;;;;;;21.62;55.49;101649.31;5037827;28;20145;-66
2021/08/05 08:56:06;;;;;;;0.13;0.10;;;;;;;21.66;55.64;101637.00;5038041;28;20025;-65
2021/08/05 08:58:31;;;;;;;1.52;0.35;;;;;;;21.60;55.51;101640.44;5044981;28;20037;-67
2021/08/05 09:00:57;;;;;;;1.10;0.30;;;;;;;21.61;54.53;101636.66;5048971;28;20048;-66
2021/08/05 09:03:23;;;;;;;1.65;0.30;;;;;;;21.65;55.38;101635.28;5043186;28;20465;-67
2021/08/05 09:05:48;;;;;;;1.38;0.47;;;;;;;21.65;54.46;101632.56;5037882;28;20033;-65
2021/08/05 09:08:14;;;;;;;0.55;0.30;;;;;;;21.62;56.82;101625.53;5032643;28;20120;-66
2021/08/05 09:10:40;;;;;;;0.20;0.10;;;;;;;21.58;55.54;101626.94;5049231;28;20112;-66
2021/08/05 09:13:07;;;;;;;0.43;0.10;;;;;;;21.53;56.10;101633.97;5035223;28;20046;-70
2021/08/05 09:15:35;;;;;;;1.48;0.47;;;;;;;21.52;55.57;101640.47;5019390;28;20030;-66
2021/08/05 09:18:01;;;;;;;0.35;0.15;;;;;;;21.55;54.52;101631.91;5034558;28;20029;-67
2021/08/05 09:20:26;;;;;;;2.00;0.30;;;;;;;21.47;55.44;101629.16;5036143;28;20108;-69
2021/08/05 09:22:53;;;;;;;1.38;0.50;;;;;;;21.49;56.07;101638.91;5036566;28;20113;-66
2021/08/05 09:25:18;;;;;;;1.45;0.28;;;;;;;21.62;55.12;101638.38;5028906;28;20072;-71
2021/08/05 09:27:46;;;;;;;0.13;0.10;;;;;;;21.59;54.08;101641.47;5025846;28;20053;-70
2021/08/05 09:30:50;;;;;;;0.52;0.22;;;;;;;21.54;56.58;101638.41;5040513;28;20070;-71
2021/08/05 09:33:17;;;;;;;2.00;0.30;;;;;;;21.59;56.14;101641.47;5031620;28;20033;-68
2021/08/05 09:35:45;;;;;;;1.20;0.47;;;;;;;21.58;56.26;101635.13;5028359;28;20030;-70
2021/08/05 09:38:35;;;;;;;1.27;0.40;;;;;;;21.57;55.95;101635.31;5033804;28;20115;-69
2021/08/05 09:41:03;;;;;;;0.88;0.35;;;;;;;21.58;55.55;101642.50;5033783;28;20033;-75
2021/08/05 09:43:30;;;;;;;0.82;0.30;;;;;;;21.61;54.69;101637.53;5033917;28;20148;-71
2021/08/05 09:45:56;;;;;;;0.77;0.25;;;;;;;21.54;54.71;101641.16;5033938;28;20033;-68
2021/08/05 09:48:38;;;;;;;2.10;0.40;;;;;;;21.63;56.00;101634.59;5033647;28;20053;-69
2021/08/05 09:51:04;;;;;;;0.35;0.28;;;;;;;21.59;56.40;101644.19;5016478;28;20049;-71
2021/08/05 09:53:30;;;;;;;1.17;0.30;;;;;;;21.52;56.34;101638.59;5022998;28;20037;-69
2021/08/05 09:56:11;;;;;;;0.85;0.40;;;;;;;21.58;55.08;101642.50;5033879;28;20029;-71
2021/08/05 09:58:39;;;;;;;0.90;0.38;;;;;;;21.52;54.79;101645.94;5033643;28;20492;-70
2021/08/05 10:01:08;;;;;;;0.38;0.17;;;;;;;21.61;55.78;101636.66;5006727;28;20045;-70
2021/08/05 10:03:34;;;;;;;0.57;0.30;;;;;;;21.50;56.21;101639.75;5031401;28;20092;-70
2021/08/05 10:06:05;;;;;;;0.82;0.32;;;;;;;21.47;55.89;101640.09;5025826;28;20105;-65
2021/08/05 10:08:40;;;;;;;0.28;0.10;;;;;;;21.71;54.70;101634.59;5015928;28;20025;-76
2021/08/05 10:11:07;;;;;;;2.05;0.40;;;;;;;21.70;57.12;101637.53;5020300;28;20018;-70
2021/08/05 10:13:35;;;;;;;0.93;0.47;;;;;;;21.68;54.54;101640.44;5017973;28;20030;-68
2021/08/05 10:16:03;;;;;;;0.20;0.20;;;;;;;21.60;55.85;101630.34;5019860;28;20024;-69
2021/08/05 10:18:33;;;;;;;0.22;0.22;;;;;;;21.62;55.30;101639.22;5017566;28;20088;-69
2021/08/05 10:21:02;;;;;;;0.93;0.25;;;;;;;21.56;55.85;101641.81;5014107;28;20105;-69
2021/08/05 10:23:42;;;;;;;1.98;0.57;;;;;;;21.55;55.15;101640.13;5017145;28;20026;-73
2021/08/05 10:26:09;;;;;;;0.60;0.45;;;;;;;21.58;55.40;101642.50;5034135;28;20112;-68
2021/08/05 10:28:38;;;;;;;0.65;0.30;;;;;;;21.57;55.71;101629.84;5025921;28;20026;-69
2021/08/05 10:31:08;;;;;;;0.50;0.30;;;;;;;21.52;55.80;101632.25;5023232;28;20025;-69
2021/08/05 10:33:41;;;;;;;0.80;0.32;;;;;;;21.60;56.12;101626.75;5026071;28;20029;-75
2021/08/05 10:36:07;;;;;;;0.10;0.10;;;;;;;21.58;54.61;101621.47;5029420;28;20030;-71
2021/08/05 10:38:34;;;;;;;0.70;0.30;;;;;;;21.50;55.90;101612.41;5024867;28;20377;-70
2021/08/05 10:41:01;;;;;;;0.93;0.28;;;;;;;21.58;55.52;101613.25;5030322;28;20028;-69
2021/08/05 10:43:26;;;;;;;1.05;0.30;;;;;;;21.53;55.39;101618.41;5026030;28;20029;-70
2021/08/05 10:45:52;;;;;;;0.95;0.32;;;;;;;21.60;55.81;101624.03;5014783;28;20495;-70
2021/08/05 10:48:18;;;;;;;0.45;0.20;;;;;;;21.54;55.62;101620.09;5014191;28;20033;-70
2021/08/05 10:50:47;;;;;;;1.27;0.32;;;;;;;21.60;55.48;101626.75;5017744;28;20076;-70
2021/08/05 10:53:36;;;;;;;1.30;0.20;;;;;;;21.58;55.41;101626.06;5032282;28;20112;-70
2021/08/05 10:56:23;;;;;;;0.20;0.20;;;;;;;21.59;55.34;101625.06;5023758;28;20037;-70
2021/08/05 10:59:15;;;;;;;2.00;0.30;;;;;;;21.55;55.84;101624.56;5034757;28;20040;-72
2021/08/05 11:01:51;;;;;;;0.68;0.22;;;;;;;21.53;55.85;101617.56;5033003;28;20105;-70
2021/08/05 11:04:32;;;;;;;0.20;0.10;;;;;;;21.57;54.20;101629.84;5034396;28;20030;-70
2021/08/05 11:07:24;;;;;;;0.32;0.10;;;;;;;21.62;56.13;101628.28;5034410;28;20025;-70
2021/08/05 11:09:52;;;;;;;0.20;0.20;;;;;;;21.53;56.43;101623.03;5033179;28;20049;-71
2021/08/05 11:12:41;;;;;;;2.05;0.30;;;;;;;21.72;56.13;101632.72;5033012;28;20040;-69
2021/08/05 11:15:23;;;;;;;0.55;0.22;;;;;;;21.62;56.08;101632.91;5032481;28;20639;-70
2021/08/05 11:18:10;;;;;;;0.95;0.35;;;;;;;21.57;56.51;101627.13;5033973;28;20031;-70
2021/08/05 11:20:41;;;;;;;0.90;0.28;;;;;;;21.55;55.69;101634.63;5015239;28;20136;-70
2021/08/05 11:23:13;;;;;;;0.88;0.20;;;;;;;21.58;56.80;101634.28;5020008;28;20581;-70
2021/08/05 11:25:51;;;;;;;0.82;0.22;;;;;;;21.54;55.68;101630.19;5011954;28;20511;-64
2021/08/05 11:28:46;;;;;;;0.22;0.10;;;;;;;21.50;55.81;101623.34;5011619;28;20034;-65
2021/08/05 11:31:33;;;;;;;0.45;0.10;;;;;;;21.44;55.30;101624.03;5011022;28;20045;-71
2021/08/05 11:34:06;;;;;;;2.40;0.30;;;;;;;21.56;55.78;101628.13;5013921;28;20030;-68
2021/08/05 11:36:34;;;;;;;0.28;0.17;;;;;;;21.59;54.84;101627.78;5027931;28;20040;-68
2021/08/05 11:39:19;;;;;;;1.55;0.38;;;;;;;21.59;55.25;101628.63;5007927;28;20047;-68
2021/08/05 11:42:13;;;;;;;0.20;0.10;;;;;;;21.65;55.16;101627.06;5020463;28;20040;-69
2021/08/05 11:44:45;;;;;;;0.22;0.22;;;;;;;21.52;55.28;101616.69;4968039;28;20184;-71
2021/08/05 11:47:12;;;;;;;2.17;0.47;;;;;;;21.46;55.35;101622.00;4960976;28;20030;-68
2021/08/05 11:50:00;;;;;;;3.78;0.57;;;;;;;21.67;55.21;101624.16;4960399;28;20532;-68
2021/08/05 11:52:29;;;;;;;4.30;0.52;;;;;;;21.63;56.28;101609.97;4960215;28;20129;-67
2021/08/05 11:55:04;;;;;;;0.65;0.30;;;;;;;21.67;58.85;101607.75;4960989;28;20042;-68
2021/08/05 11:57:52;;;;;;;0.60;0.35;;;;;;;21.84;58.13;101606.69;4969585;28;20113;-67
2021/08/05 12:00:22;;;;;;;0.60;0.20;;;;;;;21.90;57.93;101611.47;4977807;28;20077;-74
2021/08/05 12:02:49;;;;;;;1.38;0.70;;;;;;;21.86;57.06;101608.22;4960567;28;20074;-66
2021/08/05 12:05:17;;;;;;;1.30;0.30;;;;;;;21.90;57.96;101609.56;4966652;28;20101;-63
2021/08/05 12:07:48;;;;;;;0.20;0.20;;;;;;;21.90;56.40;101615.06;4970700;28;20389;-67
2021/08/05 12:10:28;;;;;;;2.20;0.52;;;;;;;21.96;57.26;101601.69;4953428;29;20035;-71
2021/08/05 12:12:56;;;;;;;8.82;0.88;;;;;;;21.99;58.21;101606.78;4953499;29;20023;-71
2021/08/05 12:15:29;;;;;;;1.75;0.32;;;;;;;21.85;58.80;101606.53;4952715;29;20039;-65
2021/08/05 12:17:58;;;;;;;1.00;0.68;;;;;;;21.87;58.11;101609.94;4953158;29;20034;-63
2021/08/05 12:20:28;;;;;;;0.85;0.32;;;;;;;21.93;59.42;101598.25;4961892;28;20038;-61
2021/08/05 12:22:56;;;;;;;1.95;0.88;;;;;;;21.78;61.08;101605.50;4997432;28;20461;-61
2021/08/05 12:25:26;;;;;;;2.13;0.57;;;;;;;21.75;58.92;101605.84;5009387;28;20029;-60
2021/08/05 12:28:00;;;;;;;3.80;0.70;;;;;;;21.77;60.39;101611.16;5008877;28;20025;-62
2021/08/05 12:30:37;;;;;;;2.92;0.70;;;;;;;21.81;59.99;101615.22;4999877;28;20078;-64
2021/08/05 12:33:13;;;;;;;7.35;1.60;;;;;;;21.86;60.49;101607.38;5002941;28;20109;-65
2021/08/05 12:35:40;;;;;;;5.00;0.55;;;;;;;21.73;62.33;101607.91;5009474;28;20025;-62
2021/08/05 12:38:09;;;;;;;3.38;0.77;;;;;;;21.70;62.07;101608.28;5001478;28;20029;-61
2021/08/05 12:40:40;;;;;;;2.42;0.43;;;;;;;21.76;62.02;101613.03;4996596;28;20030;-64
2021/08/05 12:43:08;;;;;;;2.30;0.30;;;;;;;21.80;59.70;101602.59;5004527;28;20376;-63
2021/08/05 12:45:40;;;;;;;0.52;0.25;;;;;;;21.72;60.95;101603.47;4994949;28;20048;-62
2021/08/05 12:48:07;;;;;;;1.05;0.30;;;;;;;21.67;59.45;101600.41;4997748;28;20028;-61
2021/08/05 12:50:37;;;;;;;0.52;0.38;;;;;;;21.67;59.52;101603.16;4997421;28;20019;-60
2021/08/05 12:53:02;;;;;;;0.63;0.30;;;;;;;21.66;59.26;101601.41;4996966;28;20030;-60
2021/08/05 12:55:28;;;;;;;0.52;0.45;;;;;;;21.65;59.78;101593.38;4996709;28;20034;-60
2021/08/05 12:57:53;;;;;;;0.47;0.30;;;;;;;21.66;59.03;101585.00;4997049;28;20462;-61
2021/08/05 13:00:25;;;;;;;0.32;0.30;;;;;;;21.66;59.37;101590.47;4996548;28;20465;-59
2021/08/05 13:03:04;;;;;;;0.55;0.35;;;;;;;21.69;58.20;101589.28;5026099;28;20113;-60
2021/08/05 13:05:29;;;;;;;1.13;0.50;;;;;;;21.67;58.59;101591.31;5031100;28;20369;-61
2021/08/05 13:07:55;;;;;;;1.08;0.20;;;;;;;21.67;58.86;101586.75;5035643;28;20039;-60
2021/08/05 13:10:26;;;;;;;0.90;0.20;;;;;;;21.64;58.64;101581.59;5023952;28;20486;-60
2021/08/05 13:12:54;;;;;;;0.20;0.17;;;;;;;21.68;57.95;101584.84;5014981;28;20033;-61
2021/08/05 13:15:30;;;;;;;1.13;0.40;;;;;;;21.60;58.33;101581.09;5016219;28;20025;-59
2021/08/05 13:17:57;;;;;;;0.60;0.30;;;;;;;21.69;58.09;101572.88;5016271;28;20026;-59
2021/08/05 13:20:23;;;;;;;0.88;0.47;;;;;;;21.67;58.32;101581.25;5029007;28;20030;-59
2021/08/05 13:22:49;;;;;;;0.75;0.20;;;;;;;21.61;58.09;101571.84;5022397;28;20030;-58